sensor_id;sensor_type;location;lat;lon;timestamp;P1;durP1;ratioP1;P2;durP2;ratioP2
21012;SDS011;10664;53.582;9.712;2023-02-12T00:00:38;3.90;;;2.83;;
21012;SDS011;10664;53.582;9.712;2023-02-12T00:03:04;3.27;;;2.60;;
21012;SDS011;10664;53.582;9.712;2023-02-12T00:05:30;2.53;;;2.20;;
21012;SDS011;10664;53.582;9.712;2023-02-12T00:07:56;2.20;;;2.00;;
21012;SDS011;10664;53.582;9.712;2023-02-12T00:10:22;2.57;;;2.07;;
21012;SDS011;10664;53.582;9.712;2023-02-12T00:12:48;2.00;;;1.80;;
21012;SDS011;10664;53.582;9.712;2023-02-12T00:15:14;2.33;;;1.77;;
21012;SDS011;10664;53.582;9.712;2023-02-12T00:17:40;2.70;;;2.07;;
21012;SDS011;10664;53.582;9.712;2023-02-12T00:20:06;3.20;;;2.10;;
21012;SDS011;10664;53.582;9.712;2023-02-12T00:22:32;2.20;;;2.00;;
21012;SDS011;10664;53.582;9.712;2023-02-12T00:24:58;2.50;;;2.03;;
21012;SDS011;10664;53.582;9.712;2023-02-12T00:27:24;2.53;;;2.33;;
21012;SDS011;10664;53.582;9.712;2023-02-12T00:29:50;2.77;;;2.53;;
21012;SDS011;10664;53.582;9.712;2023-02-12T00:32:16;2.60;;;2.40;;
21012;SDS011;10664;53.582;9.712;2023-02-12T00:34:44;2.80;;;2.30;;
21012;SDS011;10664;53.582;9.712;2023-02-12T00:37:10;3.13;;;2.40;;
21012;SDS011;10664;53.582;9.712;2023-02-12T00:39:36;2.90;;;2.57;;
21012;SDS011;10664;53.582;9.712;2023-02-12T00:42:02;3.33;;;2.87;;
21012;SDS011;10664;53.582;9.712;2023-02-12T00:44:28;2.73;;;2.40;;
21012;SDS011;10664;53.582;9.712;2023-02-12T00:46:54;3.30;;;2.97;;
21012;SDS011;10664;53.582;9.712;2023-02-12T00:49:21;3.00;;;2.20;;
21012;SDS011;10664;53.582;9.712;2023-02-12T00:51:47;2.80;;;2.30;;
21012;SDS011;10664;53.582;9.712;2023-02-12T00:54:13;2.00;;;1.80;;
21012;SDS011;10664;53.582;9.712;2023-02-12T00:56:39;3.37;;;1.87;;
21012;SDS011;10664;53.582;9.712;2023-02-12T00:59:05;1.73;;;1.63;;
21012;SDS011;10664;53.582;9.712;2023-02-12T01:01:31;2.17;;;1.90;;
21012;SDS011;10664;53.582;9.712;2023-02-12T01:03:57;2.00;;;1.80;;
21012;SDS011;10664;53.582;9.712;2023-02-12T01:06:23;2.60;;;2.00;;
21012;SDS011;10664;53.582;9.712;2023-02-12T01:08:50;2.10;;;1.90;;
21012;SDS011;10664;53.582;9.712;2023-02-12T01:11:16;3.70;;;2.50;;
21012;SDS011;10664;53.582;9.712;2023-02-12T01:13:42;2.23;;;1.90;;
21012;SDS011;10664;53.582;9.712;2023-02-12T01:16:13;1.60;;;1.50;;
21012;SDS011;10664;53.582;9.712;2023-02-12T01:18:39;1.63;;;1.40;;
21012;SDS011;10664;53.582;9.712;2023-02-12T01:21:09;1.53;;;1.43;;
21012;SDS011;10664;53.582;9.712;2023-02-12T01:23:35;1.30;;;1.20;;
21012;SDS011;10664;53.582;9.712;2023-02-12T01:26:01;1.40;;;1.30;;
21012;SDS011;10664;53.582;9.712;2023-02-12T01:28:28;1.30;;;1.20;;
21012;SDS011;10664;53.582;9.712;2023-02-12T01:30:54;1.47;;;1.37;;
21012;SDS011;10664;53.582;9.712;2023-02-12T01:33:20;2.53;;;1.60;;
21012;SDS011;10664;53.582;9.712;2023-02-12T01:35:46;1.50;;;1.40;;
21012;SDS011;10664;53.582;9.712;2023-02-12T01:38:12;1.60;;;1.43;;
21012;SDS011;10664;53.582;9.712;2023-02-12T01:40:38;2.10;;;1.60;;
21012;SDS011;10664;53.582;9.712;2023-02-12T01:43:05;2.30;;;1.90;;
21012;SDS011;10664;53.582;9.712;2023-02-12T01:45:48;2.23;;;2.03;;
21012;SDS011;10664;53.582;9.712;2023-02-12T01:48:16;2.07;;;1.70;;
21012;SDS011;10664;53.582;9.712;2023-02-12T01:50:43;2.40;;;1.67;;
21012;SDS011;10664;53.582;9.712;2023-02-12T01:53:10;1.80;;;1.70;;
21012;SDS011;10664;53.582;9.712;2023-02-12T01:55:43;2.27;;;1.80;;
21012;SDS011;10664;53.582;9.712;2023-02-12T01:58:09;1.73;;;1.63;;
21012;SDS011;10664;53.582;9.712;2023-02-12T02:00:35;1.50;;;1.40;;
21012;SDS011;10664;53.582;9.712;2023-02-12T02:03:01;1.87;;;1.57;;
21012;SDS011;10664;53.582;9.712;2023-02-12T02:05:42;1.40;;;1.30;;
21012;SDS011;10664;53.582;9.712;2023-02-12T02:08:08;1.30;;;1.20;;
21012;SDS011;10664;53.582;9.712;2023-02-12T02:10:34;1.47;;;1.37;;
21012;SDS011;10664;53.582;9.712;2023-02-12T02:13:00;1.47;;;1.20;;
21012;SDS011;10664;53.582;9.712;2023-02-12T02:15:46;1.60;;;1.40;;
21012;SDS011;10664;53.582;9.712;2023-02-12T02:18:18;2.07;;;1.50;;
21012;SDS011;10664;53.582;9.712;2023-02-12T02:21:04;1.43;;;1.23;;
21012;SDS011;10664;53.582;9.712;2023-02-12T02:26:39;2.17;;;1.50;;
21012;SDS011;10664;53.582;9.712;2023-02-12T02:29:17;1.60;;;1.40;;
21012;SDS011;10664;53.582;9.712;2023-02-12T02:31:46;1.50;;;1.40;;
21012;SDS011;10664;53.582;9.712;2023-02-12T02:36:49;2.10;;;1.67;;
21012;SDS011;10664;53.582;9.712;2023-02-12T02:39:37;1.80;;;1.70;;
21012;SDS011;10664;53.582;9.712;2023-02-12T02:42:08;2.30;;;1.90;;
21012;SDS011;10664;53.582;9.712;2023-02-12T02:44:57;2.03;;;1.83;;
21012;SDS011;10664;53.582;9.712;2023-02-12T02:47:23;3.17;;;2.10;;
21012;SDS011;10664;53.582;9.712;2023-02-12T02:49:56;2.37;;;1.70;;
21012;SDS011;10664;53.582;9.712;2023-02-12T02:52:27;2.43;;;2.00;;
21012;SDS011;10664;53.582;9.712;2023-02-12T02:54:55;2.83;;;2.13;;
21012;SDS011;10664;53.582;9.712;2023-02-12T02:57:24;2.83;;;1.80;;
21012;SDS011;10664;53.582;9.712;2023-02-12T02:59:53;2.27;;;2.00;;
21012;SDS011;10664;53.582;9.712;2023-02-12T03:02:39;2.63;;;2.03;;
21012;SDS011;10664;53.582;9.712;2023-02-12T03:05:17;2.57;;;2.00;;
21012;SDS011;10664;53.582;9.712;2023-02-12T03:07:45;2.50;;;2.30;;
21012;SDS011;10664;53.582;9.712;2023-02-12T03:10:16;3.77;;;2.50;;
21012;SDS011;10664;53.582;9.712;2023-02-12T03:12:45;3.17;;;2.30;;
21012;SDS011;10664;53.582;9.712;2023-02-12T03:15:17;2.73;;;2.20;;
21012;SDS011;10664;53.582;9.712;2023-02-12T03:17:45;2.60;;;2.20;;
21012;SDS011;10664;53.582;9.712;2023-02-12T03:20:19;3.03;;;2.40;;
21012;SDS011;10664;53.582;9.712;2023-02-12T03:22:48;2.70;;;2.13;;
21012;SDS011;10664;53.582;9.712;2023-02-12T03:25:17;2.43;;;2.07;;
21012;SDS011;10664;53.582;9.712;2023-02-12T03:27:46;2.90;;;2.60;;
21012;SDS011;10664;53.582;9.712;2023-02-12T03:30:14;2.50;;;2.13;;
21012;SDS011;10664;53.582;9.712;2023-02-12T03:35:49;2.77;;;2.30;;
21012;SDS011;10664;53.582;9.712;2023-02-12T03:40:56;3.33;;;2.40;;
21012;SDS011;10664;53.582;9.712;2023-02-12T03:43:29;3.50;;;2.37;;
21012;SDS011;10664;53.582;9.712;2023-02-12T03:45:58;3.50;;;3.17;;
21012;SDS011;10664;53.582;9.712;2023-02-12T03:51:08;5.40;;;3.10;;
21012;SDS011;10664;53.582;9.712;2023-02-12T03:53:37;4.13;;;3.00;;
21012;SDS011;10664;53.582;9.712;2023-02-12T03:56:05;4.03;;;3.10;;
21012;SDS011;10664;53.582;9.712;2023-02-12T03:58:33;6.13;;;4.03;;
21012;SDS011;10664;53.582;9.712;2023-02-12T04:01:00;5.97;;;3.70;;
21012;SDS011;10664;53.582;9.712;2023-02-12T04:03:26;6.63;;;4.50;;
21012;SDS011;10664;53.582;9.712;2023-02-12T04:05:52;5.63;;;4.27;;
21012;SDS011;10664;53.582;9.712;2023-02-12T04:08:18;6.87;;;4.67;;
21012;SDS011;10664;53.582;9.712;2023-02-12T04:10:52;6.87;;;4.83;;
21012;SDS011;10664;53.582;9.712;2023-02-12T04:13:25;7.43;;;5.57;;
21012;SDS011;10664;53.582;9.712;2023-02-12T04:18:20;8.97;;;6.03;;
21012;SDS011;10664;53.582;9.712;2023-02-12T04:23:16;9.07;;;5.90;;
21012;SDS011;10664;53.582;9.712;2023-02-12T04:25:51;9.27;;;6.50;;
21012;SDS011;10664;53.582;9.712;2023-02-12T04:30:57;11.30;;;6.37;;
21012;SDS011;10664;53.582;9.712;2023-02-12T04:33:24;9.83;;;6.77;;
21012;SDS011;10664;53.582;9.712;2023-02-12T04:35:59;10.30;;;7.03;;
21012;SDS011;10664;53.582;9.712;2023-02-12T04:39:09;13.53;;;7.77;;
21012;SDS011;10664;53.582;9.712;2023-02-12T04:41:15;9.03;;;6.70;;
21012;SDS011;10664;53.582;9.712;2023-02-12T04:43:41;10.20;;;6.60;;
21012;SDS011;10664;53.582;9.712;2023-02-12T04:46:07;10.63;;;7.43;;
21012;SDS011;10664;53.582;9.712;2023-02-12T04:48:34;9.03;;;6.20;;
21012;SDS011;10664;53.582;9.712;2023-02-12T04:51:01;10.13;;;6.67;;
21012;SDS011;10664;53.582;9.712;2023-02-12T04:53:27;10.90;;;6.37;;
21012;SDS011;10664;53.582;9.712;2023-02-12T04:55:53;9.03;;;6.50;;
21012;SDS011;10664;53.582;9.712;2023-02-12T04:58:19;9.97;;;6.07;;
21012;SDS011;10664;53.582;9.712;2023-02-12T05:00:45;9.73;;;6.60;;
21012;SDS011;10664;53.582;9.712;2023-02-12T05:03:11;8.53;;;5.60;;
21012;SDS011;10664;53.582;9.712;2023-02-12T05:05:37;9.90;;;6.17;;
21012;SDS011;10664;53.582;9.712;2023-02-12T05:08:03;9.53;;;6.03;;
21012;SDS011;10664;53.582;9.712;2023-02-12T05:10:29;8.10;;;5.70;;
21012;SDS011;10664;53.582;9.712;2023-02-12T05:12:55;7.50;;;5.70;;
21012;SDS011;10664;53.582;9.712;2023-02-12T05:15:21;8.07;;;5.10;;
21012;SDS011;10664;53.582;9.712;2023-02-12T05:17:47;7.23;;;5.60;;
21012;SDS011;10664;53.582;9.712;2023-02-12T05:20:13;7.37;;;5.47;;
21012;SDS011;10664;53.582;9.712;2023-02-12T05:22:39;7.80;;;5.83;;
21012;SDS011;10664;53.582;9.712;2023-02-12T05:25:05;7.57;;;5.20;;
21012;SDS011;10664;53.582;9.712;2023-02-12T05:27:31;7.40;;;5.30;;
21012;SDS011;10664;53.582;9.712;2023-02-12T05:29:57;8.50;;;5.27;;
21012;SDS011;10664;53.582;9.712;2023-02-12T05:32:23;7.50;;;5.27;;
21012;SDS011;10664;53.582;9.712;2023-02-12T05:34:49;6.83;;;5.03;;
21012;SDS011;10664;53.582;9.712;2023-02-12T05:37:15;8.67;;;5.20;;
21012;SDS011;10664;53.582;9.712;2023-02-12T05:39:41;8.20;;;5.20;;
21012;SDS011;10664;53.582;9.712;2023-02-12T05:42:07;7.43;;;5.00;;
21012;SDS011;10664;53.582;9.712;2023-02-12T05:44:33;8.90;;;5.57;;
21012;SDS011;10664;53.582;9.712;2023-02-12T05:46:59;8.47;;;5.50;;
21012;SDS011;10664;53.582;9.712;2023-02-12T05:49:25;9.23;;;5.37;;
21012;SDS011;10664;53.582;9.712;2023-02-12T05:51:51;9.57;;;5.10;;
21012;SDS011;10664;53.582;9.712;2023-02-12T05:54:17;10.40;;;5.73;;
21012;SDS011;10664;53.582;9.712;2023-02-12T05:56:44;10.07;;;5.90;;
21012;SDS011;10664;53.582;9.712;2023-02-12T05:59:14;7.40;;;5.40;;
21012;SDS011;10664;53.582;9.712;2023-02-12T06:01:41;9.67;;;5.80;;
21012;SDS011;10664;53.582;9.712;2023-02-12T06:04:09;11.07;;;6.53;;
21012;SDS011;10664;53.582;9.712;2023-02-12T06:06:36;9.70;;;6.07;;
21012;SDS011;10664;53.582;9.712;2023-02-12T06:09:05;11.23;;;6.03;;
21012;SDS011;10664;53.582;9.712;2023-02-12T06:11:31;11.10;;;6.67;;
21012;SDS011;10664;53.582;9.712;2023-02-12T06:14:00;11.40;;;6.03;;
21012;SDS011;10664;53.582;9.712;2023-02-12T06:16:26;11.13;;;6.13;;
21012;SDS011;10664;53.582;9.712;2023-02-12T06:18:53;11.07;;;6.10;;
21012;SDS011;10664;53.582;9.712;2023-02-12T06:21:19;11.77;;;6.57;;
21012;SDS011;10664;53.582;9.712;2023-02-12T06:23:46;11.37;;;7.23;;
21012;SDS011;10664;53.582;9.712;2023-02-12T06:26:12;10.67;;;6.67;;
21012;SDS011;10664;53.582;9.712;2023-02-12T06:28:38;11.07;;;6.33;;
21012;SDS011;10664;53.582;9.712;2023-02-12T06:31:04;10.90;;;6.47;;
21012;SDS011;10664;53.582;9.712;2023-02-12T06:33:30;12.17;;;7.43;;
21012;SDS011;10664;53.582;9.712;2023-02-12T06:36:01;12.47;;;6.87;;
21012;SDS011;10664;53.582;9.712;2023-02-12T06:38:27;12.77;;;7.20;;
21012;SDS011;10664;53.582;9.712;2023-02-12T06:40:53;13.20;;;7.40;;
21012;SDS011;10664;53.582;9.712;2023-02-12T06:43:19;13.33;;;7.63;;
21012;SDS011;10664;53.582;9.712;2023-02-12T06:45:45;14.03;;;7.70;;
21012;SDS011;10664;53.582;9.712;2023-02-12T06:48:11;14.97;;;8.33;;
21012;SDS011;10664;53.582;9.712;2023-02-12T06:50:37;13.83;;;8.00;;
21012;SDS011;10664;53.582;9.712;2023-02-12T06:53:03;14.00;;;8.00;;
21012;SDS011;10664;53.582;9.712;2023-02-12T06:55:29;14.90;;;8.63;;
21012;SDS011;10664;53.582;9.712;2023-02-12T06:57:54;13.17;;;7.63;;
21012;SDS011;10664;53.582;9.712;2023-02-12T07:00:23;13.30;;;7.90;;
21012;SDS011;10664;53.582;9.712;2023-02-12T07:02:53;15.53;;;8.93;;
21012;SDS011;10664;53.582;9.712;2023-02-12T07:05:19;14.93;;;8.33;;
21012;SDS011;10664;53.582;9.712;2023-02-12T07:07:45;12.37;;;7.97;;
21012;SDS011;10664;53.582;9.712;2023-02-12T07:10:11;16.07;;;8.70;;
21012;SDS011;10664;53.582;9.712;2023-02-12T07:12:37;15.37;;;8.63;;
21012;SDS011;10664;53.582;9.712;2023-02-12T07:15:03;19.13;;;10.57;;
21012;SDS011;10664;53.582;9.712;2023-02-12T07:17:29;26.30;;;15.13;;
21012;SDS011;10664;53.582;9.712;2023-02-12T07:19:55;29.17;;;18.83;;
21012;SDS011;10664;53.582;9.712;2023-02-12T07:22:21;51.20;;;36.43;;
21012;SDS011;10664;53.582;9.712;2023-02-12T07:24:47;82.80;;;55.40;;
21012;SDS011;10664;53.582;9.712;2023-02-12T07:27:15;68.83;;;50.60;;
21012;SDS011;10664;53.582;9.712;2023-02-12T07:29:41;77.63;;;56.67;;
21012;SDS011;10664;53.582;9.712;2023-02-12T07:32:07;92.40;;;71.50;;
21012;SDS011;10664;53.582;9.712;2023-02-12T07:34:33;91.63;;;70.87;;
21012;SDS011;10664;53.582;9.712;2023-02-12T07:36:59;93.40;;;73.50;;
21012;SDS011;10664;53.582;9.712;2023-02-12T07:39:25;69.57;;;57.23;;
21012;SDS011;10664;53.582;9.712;2023-02-12T07:41:51;51.93;;;44.23;;
21012;SDS011;10664;53.582;9.712;2023-02-12T07:44:16;40.80;;;33.67;;
21012;SDS011;10664;53.582;9.712;2023-02-12T07:46:44;36.07;;;27.83;;
21012;SDS011;10664;53.582;9.712;2023-02-12T07:49:11;30.60;;;22.63;;
21012;SDS011;10664;53.582;9.712;2023-02-12T07:51:37;26.73;;;19.20;;
21012;SDS011;10664;53.582;9.712;2023-02-12T07:54:03;26.20;;;17.43;;
21012;SDS011;10664;53.582;9.712;2023-02-12T07:56:31;24.73;;;15.83;;
21012;SDS011;10664;53.582;9.712;2023-02-12T07:58:59;20.40;;;13.70;;
21012;SDS011;10664;53.582;9.712;2023-02-12T08:01:29;21.23;;;14.00;;
21012;SDS011;10664;53.582;9.712;2023-02-12T08:03:59;20.97;;;13.93;;
21012;SDS011;10664;53.582;9.712;2023-02-12T08:06:26;20.90;;;13.43;;
21012;SDS011;10664;53.582;9.712;2023-02-12T08:08:55;20.20;;;12.50;;
21012;SDS011;10664;53.582;9.712;2023-02-12T08:11:21;20.37;;;12.53;;
21012;SDS011;10664;53.582;9.712;2023-02-12T08:13:48;21.40;;;13.10;;
21012;SDS011;10664;53.582;9.712;2023-02-12T08:16:15;20.93;;;13.27;;
21012;SDS011;10664;53.582;9.712;2023-02-12T08:18:41;18.47;;;11.40;;
21012;SDS011;10664;53.582;9.712;2023-02-12T08:21:08;20.67;;;13.00;;
21012;SDS011;10664;53.582;9.712;2023-02-12T08:23:34;20.43;;;12.07;;
21012;SDS011;10664;53.582;9.712;2023-02-12T08:26:05;19.43;;;11.80;;
21012;SDS011;10664;53.582;9.712;2023-02-12T08:28:31;20.03;;;12.67;;
21012;SDS011;10664;53.582;9.712;2023-02-12T08:31:01;21.97;;;12.43;;
21012;SDS011;10664;53.582;9.712;2023-02-12T08:33:27;19.43;;;11.13;;
21012;SDS011;10664;53.582;9.712;2023-02-12T08:38:32;19.03;;;11.63;;
21012;SDS011;10664;53.582;9.712;2023-02-12T08:41:06;19.27;;;11.40;;
21012;SDS011;10664;53.582;9.712;2023-02-12T08:43:32;19.43;;;11.80;;
21012;SDS011;10664;53.582;9.712;2023-02-12T08:46:05;20.47;;;11.97;;
21012;SDS011;10664;53.582;9.712;2023-02-12T08:48:32;18.17;;;11.23;;
21012;SDS011;10664;53.582;9.712;2023-02-12T08:51:32;18.30;;;11.40;;
21012;SDS011;10664;53.582;9.712;2023-02-12T08:53:51;17.87;;;10.97;;
21012;SDS011;10664;53.582;9.712;2023-02-12T08:56:17;21.20;;;11.90;;
21012;SDS011;10664;53.582;9.712;2023-02-12T08:58:44;19.70;;;10.97;;
21012;SDS011;10664;53.582;9.712;2023-02-12T09:01:11;18.23;;;11.70;;
21012;SDS011;10664;53.582;9.712;2023-02-12T09:03:38;17.47;;;10.93;;
21012;SDS011;10664;53.582;9.712;2023-02-12T09:06:05;17.03;;;11.20;;
21012;SDS011;10664;53.582;9.712;2023-02-12T09:08:31;17.63;;;10.37;;
21012;SDS011;10664;53.582;9.712;2023-02-12T09:10:58;17.83;;;11.17;;
21012;SDS011;10664;53.582;9.712;2023-02-12T09:13:24;17.83;;;10.70;;
21012;SDS011;10664;53.582;9.712;2023-02-12T09:15:50;16.87;;;10.63;;
21012;SDS011;10664;53.582;9.712;2023-02-12T09:18:16;16.83;;;10.43;;
21012;SDS011;10664;53.582;9.712;2023-02-12T09:20:42;15.77;;;10.03;;
21012;SDS011;10664;53.582;9.712;2023-02-12T09:23:09;16.47;;;9.63;;
21012;SDS011;10664;53.582;9.712;2023-02-12T09:25:39;15.20;;;9.67;;
21012;SDS011;10664;53.582;9.712;2023-02-12T09:28:05;15.97;;;9.53;;
21012;SDS011;10664;53.582;9.712;2023-02-12T09:30:31;14.93;;;9.83;;
21012;SDS011;10664;53.582;9.712;2023-02-12T09:32:57;16.00;;;10.33;;
21012;SDS011;10664;53.582;9.712;2023-02-12T09:35:23;15.23;;;10.03;;
21012;SDS011;10664;53.582;9.712;2023-02-12T09:37:51;16.03;;;10.20;;
21012;SDS011;10664;53.582;9.712;2023-02-12T09:40:18;16.60;;;10.13;;
21012;SDS011;10664;53.582;9.712;2023-02-12T09:42:49;14.93;;;9.23;;
21012;SDS011;10664;53.582;9.712;2023-02-12T09:45:24;15.60;;;10.03;;
21012;SDS011;10664;53.582;9.712;2023-02-12T09:47:57;14.47;;;9.03;;
21012;SDS011;10664;53.582;9.712;2023-02-12T09:50:32;15.47;;;9.60;;
21012;SDS011;10664;53.582;9.712;2023-02-12T09:53:01;15.17;;;9.77;;
21012;SDS011;10664;53.582;9.712;2023-02-12T09:55:29;14.33;;;9.47;;
21012;SDS011;10664;53.582;9.712;2023-02-12T09:57:55;16.17;;;9.13;;
21012;SDS011;10664;53.582;9.712;2023-02-12T10:00:28;13.30;;;8.73;;
21012;SDS011;10664;53.582;9.712;2023-02-12T10:02:55;14.17;;;9.20;;
21012;SDS011;10664;53.582;9.712;2023-02-12T10:05:28;12.80;;;8.17;;
21012;SDS011;10664;53.582;9.712;2023-02-12T10:08:09;12.47;;;8.47;;
21012;SDS011;10664;53.582;9.712;2023-02-12T10:18:35;10.93;;;7.27;;
21012;SDS011;10664;53.582;9.712;2023-02-12T10:21:06;9.87;;;7.27;;
21012;SDS011;10664;53.582;9.712;2023-02-12T10:26:11;10.63;;;7.63;;
21012;SDS011;10664;53.582;9.712;2023-02-12T10:28:38;9.63;;;6.80;;
21012;SDS011;10664;53.582;9.712;2023-02-12T10:31:12;9.53;;;6.73;;
21012;SDS011;10664;53.582;9.712;2023-02-12T10:33:42;12.63;;;7.10;;
21012;SDS011;10664;53.582;9.712;2023-02-12T10:36:26;9.10;;;6.80;;
21012;SDS011;10664;53.582;9.712;2023-02-12T10:38:56;9.20;;;6.83;;
21012;SDS011;10664;53.582;9.712;2023-02-12T10:41:23;9.37;;;7.03;;
21012;SDS011;10664;53.582;9.712;2023-02-12T10:43:53;10.13;;;7.43;;
21012;SDS011;10664;53.582;9.712;2023-02-12T10:46:19;11.97;;;8.10;;
21012;SDS011;10664;53.582;9.712;2023-02-12T10:48:45;11.20;;;8.00;;
21012;SDS011;10664;53.582;9.712;2023-02-12T10:51:33;11.37;;;8.07;;
21012;SDS011;10664;53.582;9.712;2023-02-12T10:56:47;11.73;;;8.50;;
21012;SDS011;10664;53.582;9.712;2023-02-12T10:59:20;12.00;;;8.47;;
21012;SDS011;10664;53.582;9.712;2023-02-12T11:01:47;10.50;;;7.53;;
21012;SDS011;10664;53.582;9.712;2023-02-12T11:04:22;11.53;;;8.00;;
21012;SDS011;10664;53.582;9.712;2023-02-12T11:06:59;10.07;;;7.40;;
21012;SDS011;10664;53.582;9.712;2023-02-12T11:09:28;11.10;;;7.30;;
21012;SDS011;10664;53.582;9.712;2023-02-12T11:11:54;11.57;;;8.07;;
21012;SDS011;10664;53.582;9.712;2023-02-12T11:14:20;11.43;;;7.30;;
21012;SDS011;10664;53.582;9.712;2023-02-12T11:16:51;10.90;;;7.50;;
21012;SDS011;10664;53.582;9.712;2023-02-12T11:19:27;9.70;;;7.23;;
21012;SDS011;10664;53.582;9.712;2023-02-12T11:22:07;14.17;;;9.50;;
21012;SDS011;10664;53.582;9.712;2023-02-12T11:24:35;12.07;;;7.97;;
21012;SDS011;10664;53.582;9.712;2023-02-12T11:27:11;12.53;;;8.80;;
21012;SDS011;10664;53.582;9.712;2023-02-12T11:29:38;11.53;;;9.07;;
21012;SDS011;10664;53.582;9.712;2023-02-12T11:32:05;14.43;;;9.33;;
21012;SDS011;10664;53.582;9.712;2023-02-12T11:34:35;14.03;;;9.50;;
21012;SDS011;10664;53.582;9.712;2023-02-12T11:37:01;12.20;;;8.47;;
21012;SDS011;10664;53.582;9.712;2023-02-12T11:39:29;13.53;;;8.50;;
21012;SDS011;10664;53.582;9.712;2023-02-12T11:42:05;11.77;;;8.10;;
21012;SDS011;10664;53.582;9.712;2023-02-12T11:44:38;12.80;;;8.60;;
21012;SDS011;10664;53.582;9.712;2023-02-12T11:47:07;10.30;;;8.77;;
21012;SDS011;10664;53.582;9.712;2023-02-12T11:49:41;12.17;;;8.37;;
21012;SDS011;10664;53.582;9.712;2023-02-12T11:52:13;13.37;;;9.37;;
21012;SDS011;10664;53.582;9.712;2023-02-12T11:54:42;12.43;;;8.60;;
21012;SDS011;10664;53.582;9.712;2023-02-12T11:57:33;13.70;;;8.93;;
21012;SDS011;10664;53.582;9.712;2023-02-12T11:59:57;12.33;;;8.67;;
21012;SDS011;10664;53.582;9.712;2023-02-12T12:02:27;13.40;;;9.40;;
21012;SDS011;10664;53.582;9.712;2023-02-12T12:04:58;12.47;;;9.03;;
21012;SDS011;10664;53.582;9.712;2023-02-12T12:07:31;11.33;;;8.47;;
21012;SDS011;10664;53.582;9.712;2023-02-12T12:10:00;11.63;;;8.63;;
21012;SDS011;10664;53.582;9.712;2023-02-12T12:12:31;12.40;;;8.73;;
21012;SDS011;10664;53.582;9.712;2023-02-12T12:15:03;12.47;;;8.73;;
21012;SDS011;10664;53.582;9.712;2023-02-12T12:17:57;11.00;;;7.93;;
21012;SDS011;10664;53.582;9.712;2023-02-12T12:20:49;9.73;;;7.27;;
21012;SDS011;10664;53.582;9.712;2023-02-12T12:23:30;9.80;;;7.27;;
21012;SDS011;10664;53.582;9.712;2023-02-12T12:26:07;10.60;;;7.10;;
21012;SDS011;10664;53.582;9.712;2023-02-12T12:28:39;9.93;;;7.23;;
21012;SDS011;10664;53.582;9.712;2023-02-12T12:31:07;8.90;;;6.70;;
21012;SDS011;10664;53.582;9.712;2023-02-12T12:34:17;9.43;;;6.97;;
21012;SDS011;10664;53.582;9.712;2023-02-12T12:46:40;8.63;;;6.50;;
21012;SDS011;10664;53.582;9.712;2023-02-12T12:54:34;7.93;;;5.90;;
21012;SDS011;10664;53.582;9.712;2023-02-12T12:57:08;8.47;;;5.90;;
21012;SDS011;10664;53.582;9.712;2023-02-12T13:05:22;8.30;;;6.17;;
21012;SDS011;10664;53.582;9.712;2023-02-12T13:23:16;10.13;;;7.63;;
21012;SDS011;10664;53.582;9.712;2023-02-12T13:28:32;12.03;;;8.63;;
21012;SDS011;10664;53.582;9.712;2023-02-12T13:30:59;12.97;;;8.60;;
21012;SDS011;10664;53.582;9.712;2023-02-12T13:33:27;11.03;;;7.83;;
21012;SDS011;10664;53.582;9.712;2023-02-12T13:35:55;12.30;;;8.47;;
21012;SDS011;10664;53.582;9.712;2023-02-12T13:38:24;12.17;;;7.87;;
21012;SDS011;10664;53.582;9.712;2023-02-12T13:40:51;11.10;;;7.70;;
21012;SDS011;10664;53.582;9.712;2023-02-12T13:43:27;11.00;;;7.97;;
21012;SDS011;10664;53.582;9.712;2023-02-12T13:46:02;11.60;;;8.13;;
21012;SDS011;10664;53.582;9.712;2023-02-12T13:51:07;11.37;;;8.47;;
21012;SDS011;10664;53.582;9.712;2023-02-12T13:58:46;11.40;;;8.00;;
21012;SDS011;10664;53.582;9.712;2023-02-12T14:01:33;12.23;;;8.13;;
21012;SDS011;10664;53.582;9.712;2023-02-12T14:09:43;10.10;;;7.30;;
21012;SDS011;10664;53.582;9.712;2023-02-12T14:12:11;11.17;;;7.90;;
21012;SDS011;10664;53.582;9.712;2023-02-12T14:14:39;11.50;;;8.00;;
21012;SDS011;10664;53.582;9.712;2023-02-12T14:19:55;11.10;;;7.23;;
21012;SDS011;10664;53.582;9.712;2023-02-12T14:24:52;10.13;;;6.70;;
21012;SDS011;10664;53.582;9.712;2023-02-12T14:38:01;7.70;;;5.53;;
21012;SDS011;10664;53.582;9.712;2023-02-12T14:45:51;7.63;;;5.70;;
21012;SDS011;10664;53.582;9.712;2023-02-12T14:48:37;7.73;;;5.43;;
21012;SDS011;10664;53.582;9.712;2023-02-12T14:51:03;6.53;;;5.00;;
21012;SDS011;10664;53.582;9.712;2023-02-12T14:53:31;6.07;;;5.10;;
21012;SDS011;10664;53.582;9.712;2023-02-12T14:55:59;6.13;;;4.93;;
21012;SDS011;10664;53.582;9.712;2023-02-12T14:58:26;5.73;;;4.23;;
21012;SDS011;10664;53.582;9.712;2023-02-12T15:00:55;5.50;;;4.57;;
21012;SDS011;10664;53.582;9.712;2023-02-12T15:03:23;5.70;;;4.47;;
21012;SDS011;10664;53.582;9.712;2023-02-12T15:05:54;4.83;;;3.93;;
21012;SDS011;10664;53.582;9.712;2023-02-12T15:11:15;4.73;;;3.70;;
21012;SDS011;10664;53.582;9.712;2023-02-12T15:13:47;4.93;;;3.73;;
21012;SDS011;10664;53.582;9.712;2023-02-12T15:16:15;4.43;;;3.97;;
21012;SDS011;10664;53.582;9.712;2023-02-12T15:18:46;5.23;;;3.83;;
21012;SDS011;10664;53.582;9.712;2023-02-12T15:21:19;4.73;;;3.73;;
21012;SDS011;10664;53.582;9.712;2023-02-12T15:23:46;4.20;;;3.30;;
21012;SDS011;10664;53.582;9.712;2023-02-12T15:26:14;3.97;;;3.53;;
21012;SDS011;10664;53.582;9.712;2023-02-12T15:28:40;4.40;;;3.57;;
21012;SDS011;10664;53.582;9.712;2023-02-12T15:31:07;4.13;;;3.70;;
21012;SDS011;10664;53.582;9.712;2023-02-12T15:33:34;3.60;;;3.30;;
21012;SDS011;10664;53.582;9.712;2023-02-12T15:36:02;3.20;;;2.90;;
21012;SDS011;10664;53.582;9.712;2023-02-12T15:40:56;3.67;;;3.37;;
21012;SDS011;10664;53.582;9.712;2023-02-12T15:43:24;4.20;;;3.53;;
21012;SDS011;10664;53.582;9.712;2023-02-12T15:45:51;3.23;;;2.93;;
21012;SDS011;10664;53.582;9.712;2023-02-12T15:48:21;3.50;;;3.20;;
21012;SDS011;10664;53.582;9.712;2023-02-12T15:50:51;3.30;;;3.00;;
21012;SDS011;10664;53.582;9.712;2023-02-12T15:53:18;3.37;;;3.07;;
21012;SDS011;10664;53.582;9.712;2023-02-12T15:55:45;3.30;;;3.00;;
21012;SDS011;10664;53.582;9.712;2023-02-12T15:58:26;3.17;;;2.90;;
21012;SDS011;10664;53.582;9.712;2023-02-12T16:00:52;3.50;;;3.20;;
21012;SDS011;10664;53.582;9.712;2023-02-12T16:05:48;3.90;;;3.00;;
21012;SDS011;10664;53.582;9.712;2023-02-12T16:08:15;3.70;;;3.40;;
21012;SDS011;10664;53.582;9.712;2023-02-12T16:10:46;3.30;;;3.00;;
21012;SDS011;10664;53.582;9.712;2023-02-12T16:16:14;3.73;;;3.40;;
21012;SDS011;10664;53.582;9.712;2023-02-12T16:18:42;3.47;;;3.17;;
21012;SDS011;10664;53.582;9.712;2023-02-12T16:23:37;3.77;;;3.43;;
21012;SDS011;10664;53.582;9.712;2023-02-12T16:26:03;3.80;;;3.30;;
21012;SDS011;10664;53.582;9.712;2023-02-12T16:28:30;3.43;;;3.13;;
21012;SDS011;10664;53.582;9.712;2023-02-12T16:31:09;3.90;;;3.23;;
21012;SDS011;10664;53.582;9.712;2023-02-12T16:38:51;3.50;;;3.20;;
21012;SDS011;10664;53.582;9.712;2023-02-12T16:44:29;3.70;;;3.20;;
21012;SDS011;10664;53.582;9.712;2023-02-12T16:46:46;4.30;;;3.90;;
21012;SDS011;10664;53.582;9.712;2023-02-12T16:49:16;3.50;;;3.20;;
21012;SDS011;10664;53.582;9.712;2023-02-12T16:51:43;3.33;;;3.03;;
21012;SDS011;10664;53.582;9.712;2023-02-12T16:54:26;3.77;;;3.40;;
21012;SDS011;10664;53.582;9.712;2023-02-12T16:56:52;4.03;;;3.63;;
21012;SDS011;10664;53.582;9.712;2023-02-12T16:59:18;3.80;;;3.47;;
21012;SDS011;10664;53.582;9.712;2023-02-12T17:01:57;4.27;;;3.87;;
21012;SDS011;10664;53.582;9.712;2023-02-12T17:04:24;3.73;;;3.43;;